Latest Weather Observations for Lismore Airport

IDN60801

Issued at 5:32 pm EDT Thursday 19 January 2017 (issued every 30 minutes, with the page automatically refreshed every 10 minutes)

About weather observations | Map of weather stations | Latest weather observations for NSW | Other Formats
Station Details ID: 058214 Name: LISMORE AIRPORT AWS Lat: -28.83 Lon: 153.26 Height: 9.21 m
Data from the previous 72 hours. | See also: Recent months at Lismore Airport
Date/Time
EDT
Temp
°C
App
Temp
°C
Dew
Point
°C
Rel
Hum
%
Delta-T
°C
Wind Press
QNH
hPa
Press
MSL
hPa
Rain since
9am
mm
Dir  Spd
km/h
Gust
km/h
Spd
kts
Gust
kts
19/05:30pm 26.0 26.3 19.6 68 4.1 SE 17 20 9 11 1010.1 1010.1 0.0
19/05:00pm 26.0 25.6 19.4 67 4.3 SE 20 26 11 14 1010.4 1010.4 0.0
19/04:30pm 26.1 26.4 19.5 67 4.3 SSE 17 24 9 13 1010.6 1010.6 0.0
19/04:00pm 26.2 27.0 19.8 68 4.2 SE 15 26 8 14 1010.8 1010.8 0.0
19/03:30pm 26.1 27.0 20.0 69 4.0 SE 15 20 8 11 1011.3 1011.3 0.0
19/03:00pm 26.1 25.6 19.2 65 4.4 SSE 20 28 11 15 1011.6 1011.6 0.0
19/02:30pm 26.1 26.4 19.7 68 4.1 SE 17 24 9 13 1011.7 1011.7 0.0
19/02:00pm 26.4 26.3 19.5 66 4.5 SSE 19 26 10 14 1011.8 1011.8 0.0
19/01:30pm 25.6 25.3 19.5 69 3.9 SSE 20 30 11 16 1012.2 1012.2 0.0
19/01:00pm 25.3 25.2 19.9 72 3.5 SSE 20 33 11 18 1012.3 1012.3 0.0
19/12:30pm 26.2 26.5 20.5 71 3.7 S 19 28 10 15 1012.5 1012.5 0.0
19/12:00pm 25.3 25.6 20.3 74 3.3 SSE 19 28 10 15 1012.6 1012.6 0.0
19/11:30am 26.0 26.6 20.3 71 3.7 SSE 17 22 9 12 1012.7 1012.7 0.0
19/11:00am 25.5 25.7 20.1 72 3.5 SSE 19 28 10 15 1012.8 1012.8 0.0
19/10:30am 25.5 25.4 19.9 71 3.6 S 20 30 11 16 1012.8 1012.8 0.0
19/10:00am 25.4 24.8 19.8 71 3.6 SSE 22 32 12 17 1012.7 1012.7 0.0
19/09:30am 25.8 25.8 20.1 71 3.7 S 20 30 11 16 1012.6 1012.6 0.0
19/09:00am 25.2 26.2 21.1 78 2.7 S 17 22 9 12 1012.6 1012.6 0.0
19/08:30am 24.3 26.3 21.6 85 1.8 SSW 13 17 7 9 1012.6 1012.6 0.0
19/08:00am 23.8 25.1 21.7 88 1.4 SSW 17 20 9 11 1012.4 1012.4 0.0
19/07:34am 23.7 26.0 22.1 91 1.1 S 13 15 7 8 1012.3 1012.3 0.0
19/07:30am 23.6 25.8 21.9 90 1.1 SSW 13 19 7 10 1012.3 1012.3 0.0
19/07:07am 23.6 25.1 22.0 91 1.1 SSW 17 20 9 11 1011.9 1011.9 0.0
19/07:00am 23.7 25.6 22.1 91 1.1 SSW 15 20 8 11 1011.8 1011.8 0.0
19/06:30am 23.7 25.2 22.0 90 1.1 SSW 17 24 9 13 1011.3 1011.3 0.0
19/06:00am 24.3 25.2 21.6 85 1.8 SSW 19 24 10 13 1010.9 1010.9 0.0
19/05:53am 24.4 25.8 21.9 86 1.7 SSW 17 22 9 12 1010.7 1010.7 0.0
19/05:32am 24.4 25.6 22.1 87 1.5 S 19 24 10 13 1010.5 1010.5 0.0
19/05:30am 24.5 25.4 22.0 86 1.7 S 20 28 11 15 1010.5 1010.5 0.0
19/05:00am 25.2 26.3 21.9 82 2.2 S 19 26 10 14 1010.1 1010.1 0.0
19/04:30am 25.5 26.3 21.8 80 2.5 S 20 28 11 15 1009.7 1009.7 0.0
19/04:00am 25.7 25.9 22.0 80 2.5 S 24 32 13 17 1009.4 1009.4 0.0
19/03:30am 25.9 26.2 22.2 80 2.5 S 24 35 13 19 1009.2 1009.2 0.0
19/03:00am 26.2 25.9 22.5 80 2.5 S 28 39 15 21 1009.2 1009.2 0.0
19/02:30am 26.2 25.3 22.9 82 2.2 S 32 41 17 22 1009.0 1009.0 0.0
19/02:00am 25.8 27.0 22.5 82 2.2 SSE 20 28 11 15 1008.9 1008.9 0.0
19/01:30am 25.9 26.1 22.0 79 2.6 SSE 24 30 13 16 1008.9 1008.9 0.0
19/01:00am 26.5 25.9 21.9 76 3.1 SSE 28 43 15 23 1008.6 1008.6 0.0
19/12:30am 28.7 27.3 22.9 71 4.0 S 35 57 19 31 1008.1 1008.1 0.0
19/12:24am 28.9 32.5 23.1 71 4.0 N 9 50 5 27 1007.8 1007.8 0.0
19/12:23am 28.0 32.4 23.4 76 3.2 N 6 44 3 24 1007.8 1007.8 0.0
19/12:00am 27.8 32.5 24.0 80 2.6 NNE 6 15 3 8 1006.6 1006.6 0.0
 
Date/Time
EDT
Temp
°C
App
Temp
°C
Dew
Point
°C
Rel
Hum
%
Delta-T
°C
Wind Press
QNH
hPa
Press
MSL
hPa
Rain since
9am
mm
Dir  Spd
km/h
Gust
km/h
Spd
kts
Gust
kts
18/11:30pm 27.4 31.5 24.5 84 2.0 N 11 13 6 7 1006.7 1006.7 0.0
18/11:00pm 27.7 31.1 24.1 81 2.5 N 13 15 7 8 1006.8 1006.8 0.0
18/10:30pm 28.2 31.7 24.2 79 2.8 N 13 15 7 8 1007.0 1007.0 0.0
18/10:00pm 28.8 31.7 23.9 75 3.4 N 15 17 8 9 1007.0 1007.0 0.0
18/09:30pm 28.9 32.0 24.2 76 3.3 NNE 15 19 8 10 1006.7 1006.7 0.0
18/09:00pm 29.5 33.1 24.4 74 3.6 N 13 17 7 9 1006.4 1006.4 0.0
18/08:30pm 30.3 33.9 24.4 70 4.1 NNE 13 17 7 9 1006.1 1006.1 0.0
18/08:00pm 31.6 35.4 24.7 67 4.9 NNE 13 19 7 10 1005.6 1005.6 0.0
18/07:30pm 32.8 35.6 24.3 61 6.0 NE 17 22 9 12 1005.2 1005.2 0.0
18/07:00pm 34.0 37.1 24.8 58 6.5 NE 17 20 9 11 1005.0 1005.0 0.0
18/06:30pm 35.0 38.0 24.6 55 7.3 NE 17 22 9 12 1004.8 1004.8 0.0
18/06:00pm 36.2 38.7 23.8 49 8.7 NE 17 20 9 11 1004.7 1004.7 0.0
18/05:30pm 36.7 39.0 23.5 46 9.2 N 17 20 9 11 1004.8 1004.8 0.0
18/05:00pm 37.3 38.7 21.0 38 11.1 N 15 20 8 11 1005.0 1005.0 0.0
18/04:30pm 37.5 38.6 21.2 38 11.1 N 17 24 9 13 1005.3 1005.3 0.0
18/04:00pm 37.1 39.2 22.4 42 10.2 N 15 20 8 11 1005.8 1005.8 0.0
18/03:30pm 37.1 40.0 23.2 45 9.7 NNE 13 19 7 10 1006.3 1006.3 0.0
18/03:00pm 37.2 39.5 22.1 41 10.4 NNW 13 20 7 11 1006.8 1006.8 0.0
18/02:30pm 37.8 41.3 24.2 46 9.6 NNW 13 17 7 9 1007.3 1007.3 0.0
18/02:00pm 36.9 39.5 22.6 43 9.9 NNW 13 22 7 12 1007.8 1007.8 0.0
18/01:30pm 36.5 39.7 23.7 47 9.0 NW 13 20 7 11 1008.3 1008.3 0.0
18/01:00pm 35.8 36.9 22.0 44 9.5 NNW 19 26 10 14 1009.0 1009.0 0.0
18/12:30pm 35.1 36.2 22.4 47 8.7 NW 20 33 11 18 1009.4 1009.4 0.0
18/12:00pm 33.9 34.3 20.6 45 8.9 WNW 19 26 10 14 1009.9 1009.9 0.0
18/11:30am 33.3 34.9 22.1 52 7.6 NW 17 20 9 11 1010.4 1010.4 0.0
18/11:00am 32.9 33.7 21.7 51 7.6 NNW 20 28 11 15 1010.7 1010.7 0.0
18/10:30am 32.0 33.2 21.5 53 7.1 NNW 17 24 9 13 1011.0 1011.0 0.0
18/10:00am 31.0 31.7 21.5 57 6.4 NNW 20 26 11 14 1011.1 1011.1 0.0
18/09:30am 29.6 31.2 21.5 61 5.4 NNW 15 28 8 15 1011.5 1011.5 0.0
18/09:00am 27.2 29.9 22.2 74 3.4 N 11 17 6 9 1011.8 1011.8 0.0
18/08:30am 25.6 28.1 21.7 79 2.6 N 11 15 6 8 1012.1 1012.1 -
18/08:00am 23.9 26.8 21.0 84 1.9 N 7 9 4 5 1012.1 1012.1 -
18/07:30am 22.3 25.1 20.9 92 0.9 N 7 9 4 5 1012.1 1012.1 -
18/07:05am 21.5 24.3 20.8 96 0.5 N 7 9 4 5 1012.0 1012.0 -
18/07:00am 21.3 23.6 20.6 96 0.5 N 9 11 5 6 1012.0 1012.0 -
18/06:39am 20.6 23.1 19.9 96 0.4 N 6 9 3 5 1011.9 1011.9 -
18/06:31am 20.3 22.1 19.6 96 0.4 N 9 15 5 8 1011.8 1011.8 -
18/06:30am 20.3 22.1 19.6 96 0.4 N 9 15 5 8 1011.8 1011.8 -
18/06:19am 20.4 21.1 19.7 96 0.4 N 15 15 8 8 1011.6 1011.6 -
18/06:00am 20.5 22.0 19.8 96 0.4 N 11 13 6 7 1011.5 1011.5 -
18/05:30am 20.3 22.5 19.5 95 0.5 N 7 9 4 5 1011.3 1011.3 -
18/05:00am 20.7 22.7 19.9 95 0.5 N 9 11 5 6 1011.1 1011.1 -
18/04:30am 20.9 23.0 20.2 96 0.4 N 9 11 5 6 1011.0 1011.0 -
18/04:00am 21.0 22.7 20.2 95 0.5 N 11 11 6 6 1011.1 1011.1 -
18/03:30am 21.1 23.3 20.3 95 0.5 NNW 9 11 5 6 1011.2 1011.2 -
18/03:27am 20.9 23.0 20.1 95 0.5 NNW 9 11 5 6 1011.2 1011.2 -
18/03:05am 21.0 23.0 20.0 94 0.6 N 9 9 5 5 1011.4 1011.4 -
18/03:00am 21.4 23.7 20.6 95 0.5 N 9 9 5 5 1011.5 1011.5 -
18/02:30am 21.7 24.0 20.7 94 0.6 N 9 11 5 6 1011.8 1011.8 -
18/02:00am 21.8 24.1 20.6 93 0.8 N 9 11 5 6 1012.2 1012.2 -
18/01:30am 21.9 24.1 20.4 91 1.0 N 9 13 5 7 1012.4 1012.4 -
18/01:00am 22.3 - 20.4 89 1.2 - - - - - 1013.1 1013.1 -
 
Date/Time
EDT
Temp
°C
App
Temp
°C
Dew
Point
°C
Rel
Hum
%
Delta-T
°C
Wind Press
QNH
hPa
Press
MSL
hPa
Rain since
9am
mm
Dir  Spd
km/h
Gust
km/h
Spd
kts
Gust
kts
17/11:30pm 23.9 26.1 21.2 85 1.8 NNE 11 15 6 8 1013.7 1013.7 -
17/11:00pm 24.3 26.2 21.4 84 1.9 NNE 13 17 7 9 1013.9 1013.9 -
17/10:30pm 24.7 25.9 21.4 82 2.2 NNE 17 20 9 11 1013.8 1013.8 -
17/10:00pm 25.3 26.0 21.6 80 2.5 NE 20 28 11 15 1013.8 1013.8 -
17/09:30pm 25.4 26.4 21.7 80 2.5 NE 19 26 10 14 1013.7 1013.7 -
17/09:00pm 25.8 26.9 21.9 79 2.6 NE 19 26 10 14 1013.5 1013.5 -
17/08:30pm 26.4 27.3 22.0 77 2.9 NE 20 26 11 14 1013.2 1013.2 -
17/08:00pm 26.9 28.0 22.3 76 3.1 NE 20 30 11 16 1012.9 1012.9 -
17/07:30pm 27.6 28.3 22.3 73 3.6 NE 22 30 12 16 1012.7 1012.7 -
17/07:00pm 28.6 29.5 22.6 70 4.1 NE 22 32 12 17 1012.5 1012.5 -
17/06:30pm 29.3 30.4 23.0 69 4.3 ENE 22 32 12 17 1012.4 1012.4 -
17/06:00pm 29.9 30.8 23.3 67 4.5 NE 24 33 13 18 1012.2 1012.2 -
17/05:30pm 30.3 31.3 23.5 67 4.7 ENE 24 35 13 19 1012.1 1012.1 -
17/09:00am 23.8 29.1 23.0 95 0.5 CALM 0 0 0 0 1017.2 1017.2 0.0
17/08:42am 22.9 27.8 22.4 97 0.3 CALM 0 0 0 0 1017.3 1017.3 0.0
17/08:30am 23.2 27.2 22.7 97 0.3 NNE 6 7 3 4 1017.3 1017.3 0.0
17/08:00am 22.5 25.9 22.0 97 0.3 N 7 11 4 6 1017.2 1017.2 0.0
17/07:30am 22.2 25.1 21.7 97 0.3 N 9 11 5 6 1017.0 1017.0 0.0
17/07:00am 21.8 24.5 21.3 97 0.3 N 9 11 5 6 1016.8 1016.8 0.0
17/06:30am 21.9 25.0 21.4 97 0.3 N 7 11 4 6 1016.5 1016.5 0.0
17/06:00am 22.0 25.1 21.5 97 0.3 N 7 9 4 5 1016.1 1016.1 0.0
17/05:30am 21.7 24.3 21.2 97 0.3 N 9 11 5 6 1015.8 1015.8 0.0
17/05:00am 21.5 24.4 21.0 97 0.3 N 7 9 4 5 1015.7 1015.7 0.0
17/04:30am 21.2 25.2 20.5 96 0.5 CALM 0 0 0 0 1015.4 1015.4 0.0
17/04:00am 21.8 26.1 21.1 96 0.5 CALM 0 0 0 0 1015.4 1015.4 0.0
17/03:51am 21.6 25.8 20.9 96 0.5 CALM 0 0 0 0 1015.4 1015.4 0.0
17/03:39am 21.5 25.6 20.7 95 0.5 CALM 0 0 0 0 1015.5 1015.5 0.0
17/03:33am 21.5 25.6 20.7 95 0.5 CALM 0 0 0 0 1015.5 1015.5 0.0
17/03:30am 21.4 25.4 20.6 95 0.5 CALM 0 0 0 0 1015.5 1015.5 0.0
17/03:14am 21.8 26.0 21.0 95 0.5 CALM 0 0 0 0 1015.6 1015.6 0.0
17/03:00am 22.0 26.3 21.2 95 0.5 CALM 0 0 0 0 1015.5 1015.5 0.0
17/02:58am 22.0 26.3 21.2 95 0.5 CALM 0 0 0 0 1015.5 1015.5 0.0
17/02:30am 22.1 26.4 21.1 94 0.7 CALM 0 0 0 0 1015.6 1015.6 0.0
17/02:27am 21.8 25.9 20.8 94 0.6 CALM 0 0 0 0 1015.6 1015.6 0.0
17/02:00am 22.0 26.0 20.6 92 0.9 CALM 0 0 0 0 1015.7 1015.7 0.0
17/01:30am 22.6 26.9 21.2 92 0.9 CALM 0 0 0 0 1015.7 1015.7 0.0
17/01:00am 23.2 27.7 21.5 90 1.1 CALM 0 6 0 3 1016.0 1016.0 0.0
17/12:30am 23.7 27.9 21.8 89 1.3 N 2 7 1 4 1016.1 1016.1 0.0
17/12:00am 24.5 27.7 22.4 88 1.4 NNE 9 13 5 7 1016.3 1016.3 0.0
 
Date/Time
EDT
Temp
°C
App
Temp
°C
Dew
Point
°C
Rel
Hum
%
Delta-T
°C
Wind Press
QNH
hPa
Press
MSL
hPa
Rain since
9am
mm
Dir  Spd
km/h
Gust
km/h
Spd
kts
Gust
kts
16/11:30pm 24.5 28.2 22.6 89 1.3 NNE 7 11 4 6 1016.4 1016.4 0.0
16/11:00pm 23.8 28.6 22.1 90 1.1 CALM 0 0 0 0 1016.6 1016.6 0.0
16/10:30pm 24.1 28.7 21.8 87 1.5 CALM 0 0 0 0 1016.7 1016.7 0.0
16/10:00pm 24.4 29.2 22.1 87 1.5 CALM 0 0 0 0 1016.6 1016.6 0.0
16/09:30pm 24.5 29.3 22.2 87 1.5 CALM 0 0 0 0 1016.5 1016.5 0.0
16/09:00pm 24.8 29.6 22.1 85 1.8 CALM 0 0 0 0 1016.3 1016.3 0.0
16/08:30pm 25.1 29.8 22.0 83 2.1 CALM 0 0 0 0 1016.3 1016.3 0.0
16/08:13pm 25.1 29.4 22.0 83 2.1 SE 2 7 1 4 1016.1 1016.1 0.0
16/08:00pm 25.1 28.4 21.8 82 2.2 SE 7 11 4 6 1016.0 1016.0 0.0
16/07:39pm 25.3 28.2 21.8 81 2.3 SE 9 13 5 7 1015.9 1015.9 0.0
16/07:30pm 25.4 28.0 21.9 81 2.3 SSE 11 15 6 8 1015.7 1015.7 0.0
16/07:00pm 26.0 29.0 21.9 78 2.7 SE 9 13 5 7 1015.3 1015.3 0.0
16/06:30pm 26.2 29.3 22.1 78 2.7 ESE 9 13 5 7 1015.0 1015.0 0.0
16/06:00pm 26.2 28.7 21.8 77 2.9 SE 11 15 6 8 1014.7 1014.7 0.0

Other Formats:

Comma delimited format used in spreadsheet applications
http://www.bom.gov.au/fwo/IDN60801/IDN60801.94572.axf

JavaScript Object Notation format (JSON) in row-major order
http://www.bom.gov.au/fwo/IDN60801/IDN60801.94572.json